sensor_id;sensor_type;location;lat;lon;timestamp;temperature;humidity
66610;DHT22;53468;48.276;14.416;2022-08-05T00:04:48;20.00;99.90
66610;DHT22;53468;48.276;14.416;2022-08-05T00:10:22;19.90;99.90
66610;DHT22;53468;48.276;14.416;2022-08-05T00:15:54;19.90;99.90
66610;DHT22;53468;48.276;14.416;2022-08-05T00:21:27;19.80;99.90
66610;DHT22;53468;48.276;14.416;2022-08-05T00:27:02;19.70;99.90
66610;DHT22;53468;48.276;14.416;2022-08-05T00:32:35;19.70;99.90
66610;DHT22;53468;48.276;14.416;2022-08-05T00:38:08;19.60;99.90
66610;DHT22;53468;48.276;14.416;2022-08-05T00:43:41;19.60;99.90
66610;DHT22;53468;48.276;14.416;2022-08-05T00:49:16;19.60;99.90
66610;DHT22;53468;48.276;14.416;2022-08-05T00:54:51;19.50;99.90
66610;DHT22;53468;48.276;14.416;2022-08-05T01:00:25;19.40;99.90
66610;DHT22;53468;48.276;14.416;2022-08-05T01:05:57;19.40;99.90
66610;DHT22;53468;48.276;14.416;2022-08-05T01:11:32;19.30;99.90
66610;DHT22;53468;48.276;14.416;2022-08-05T01:17:12;19.30;99.90
66610;DHT22;53468;48.276;14.416;2022-08-05T01:22:57;19.20;99.90
66610;DHT22;53468;48.276;14.416;2022-08-05T01:28:35;19.20;99.90
66610;DHT22;53468;48.276;14.416;2022-08-05T01:34:12;19.10;99.90
66610;DHT22;53468;48.276;14.416;2022-08-05T01:39:46;19.10;99.90
66610;DHT22;53468;48.276;14.416;2022-08-05T01:45:22;19.10;99.90
66610;DHT22;53468;48.276;14.416;2022-08-05T01:50:56;19.00;99.90
66610;DHT22;53468;48.276;14.416;2022-08-05T01:56:31;19.00;99.90
66610;DHT22;53468;48.276;14.416;2022-08-05T02:02:08;19.00;99.90
66610;DHT22;53468;48.276;14.416;2022-08-05T02:07:42;18.80;99.90
66610;DHT22;53468;48.276;14.416;2022-08-05T02:13:16;18.80;99.90
66610;DHT22;53468;48.276;14.416;2022-08-05T02:18:53;18.80;99.90
66610;DHT22;53468;48.276;14.416;2022-08-05T02:24:33;18.60;99.90
66610;DHT22;53468;48.276;14.416;2022-08-05T02:30:10;18.60;99.90
66610;DHT22;53468;48.276;14.416;2022-08-05T02:35:45;18.50;99.90
66610;DHT22;53468;48.276;14.416;2022-08-05T02:41:19;18.40;99.90
66610;DHT22;53468;48.276;14.416;2022-08-05T02:46:54;18.30;99.90
66610;DHT22;53468;48.276;14.416;2022-08-05T02:52:29;18.40;99.90
66610;DHT22;53468;48.276;14.416;2022-08-05T02:58:08;18.40;99.90
66610;DHT22;53468;48.276;14.416;2022-08-05T03:03:41;18.50;99.90
66610;DHT22;53468;48.276;14.416;2022-08-05T03:09:16;18.30;99.90
66610;DHT22;53468;48.276;14.416;2022-08-05T03:14:50;18.30;99.90
66610;DHT22;53468;48.276;14.416;2022-08-05T03:20:22;18.20;99.90
66610;DHT22;53468;48.276;14.416;2022-08-05T03:25:56;18.20;99.90
66610;DHT22;53468;48.276;14.416;2022-08-05T03:31:28;18.20;99.90
66610;DHT22;53468;48.276;14.416;2022-08-05T03:37:01;18.20;99.90
66610;DHT22;53468;48.276;14.416;2022-08-05T03:42:37;18.10;99.90
66610;DHT22;53468;48.276;14.416;2022-08-05T03:48:10;18.00;99.90
66610;DHT22;53468;48.276;14.416;2022-08-05T03:53:49;17.90;99.90
66610;DHT22;53468;48.276;14.416;2022-08-05T03:59:27;17.80;99.90
66610;DHT22;53468;48.276;14.416;2022-08-05T04:05:02;17.90;99.90
66610;DHT22;53468;48.276;14.416;2022-08-05T04:10:35;17.80;99.90
66610;DHT22;53468;48.276;14.416;2022-08-05T04:16:11;17.80;99.90
66610;DHT22;53468;48.276;14.416;2022-08-05T04:21:44;17.70;99.90
66610;DHT22;53468;48.276;14.416;2022-08-05T04:27:16;17.80;99.90
66610;DHT22;53468;48.276;14.416;2022-08-05T04:32:50;17.80;99.90
66610;DHT22;53468;48.276;14.416;2022-08-05T04:38:23;17.90;99.90
66610;DHT22;53468;48.276;14.416;2022-08-05T04:43:56;17.90;99.90
66610;DHT22;53468;48.276;14.416;2022-08-05T04:49:29;18.00;99.90
66610;DHT22;53468;48.276;14.416;2022-08-05T04:55:01;18.10;99.90
66610;DHT22;53468;48.276;14.416;2022-08-05T05:00:35;18.10;99.90
66610;DHT22;53468;48.276;14.416;2022-08-05T05:51:21;19.10;99.90
66610;DHT22;53468;48.276;14.416;2022-08-05T05:57:14;19.20;99.90
66610;DHT22;53468;48.276;14.416;2022-08-05T06:02:47;19.30;99.90
66610;DHT22;53468;48.276;14.416;2022-08-05T06:08:20;19.50;99.90
66610;DHT22;53468;48.276;14.416;2022-08-05T06:13:53;19.60;99.90
66610;DHT22;53468;48.276;14.416;2022-08-05T06:19:26;19.90;99.90
66610;DHT22;53468;48.276;14.416;2022-08-05T06:25:00;20.10;99.90
66610;DHT22;53468;48.276;14.416;2022-08-05T06:30:33;20.30;99.90
66610;DHT22;53468;48.276;14.416;2022-08-05T06:36:05;20.50;99.90
66610;DHT22;53468;48.276;14.416;2022-08-05T06:41:38;20.60;99.90
66610;DHT22;53468;48.276;14.416;2022-08-05T06:47:11;20.90;99.90
66610;DHT22;53468;48.276;14.416;2022-08-05T06:52:43;21.10;99.90
66610;DHT22;53468;48.276;14.416;2022-08-05T06:58:17;21.50;99.90
66610;DHT22;53468;48.276;14.416;2022-08-05T07:03:49;22.50;99.90
66610;DHT22;53468;48.276;14.416;2022-08-05T07:09:21;23.80;99.90
66610;DHT22;53468;48.276;14.416;2022-08-05T07:14:55;24.90;99.90
66610;DHT22;53468;48.276;14.416;2022-08-05T07:20:44;26.00;99.50
66610;DHT22;53468;48.276;14.416;2022-08-05T07:26:16;26.70;97.90
66610;DHT22;53468;48.276;14.416;2022-08-05T07:31:50;27.40;93.90
66610;DHT22;53468;48.276;14.416;2022-08-05T07:37:22;27.90;96.60
66610;DHT22;53468;48.276;14.416;2022-08-05T07:42:54;27.80;97.90
66610;DHT22;53468;48.276;14.416;2022-08-05T07:48:28;28.10;96.60
66610;DHT22;53468;48.276;14.416;2022-08-05T07:54:00;28.30;96.90
66610;DHT22;53468;48.276;14.416;2022-08-05T07:59:32;28.40;96.20
66610;DHT22;53468;48.276;14.416;2022-08-05T08:05:06;28.70;92.80
66610;DHT22;53468;48.276;14.416;2022-08-05T08:10:39;29.00;93.20
66610;DHT22;53468;48.276;14.416;2022-08-05T08:16:11;29.40;93.60
66610;DHT22;53468;48.276;14.416;2022-08-05T08:21:44;29.60;89.50
66610;DHT22;53468;48.276;14.416;2022-08-05T08:27:16;29.40;87.70
66610;DHT22;53468;48.276;14.416;2022-08-05T08:32:49;29.80;92.00
66610;DHT22;53468;48.276;14.416;2022-08-05T08:38:22;29.90;84.80
66610;DHT22;53468;48.276;14.416;2022-08-05T08:43:55;29.90;89.40
66610;DHT22;53468;48.276;14.416;2022-08-05T08:49:30;30.20;90.50
66610;DHT22;53468;48.276;14.416;2022-08-05T08:55:07;30.20;86.20
66610;DHT22;53468;48.276;14.416;2022-08-05T09:00:40;30.20;88.40
66610;DHT22;53468;48.276;14.416;2022-08-05T09:06:13;30.30;87.60
66610;DHT22;53468;48.276;14.416;2022-08-05T09:11:46;30.20;91.60
66610;DHT22;53468;48.276;14.416;2022-08-05T09:17:19;30.10;83.50
66610;DHT22;53468;48.276;14.416;2022-08-05T09:23:08;30.30;88.20
66610;DHT22;53468;48.276;14.416;2022-08-05T09:28:42;30.40;84.20
66610;DHT22;53468;48.276;14.416;2022-08-05T09:34:17;30.60;83.40
66610;DHT22;53468;48.276;14.416;2022-08-05T09:39:50;30.40;79.90
66610;DHT22;53468;48.276;14.416;2022-08-05T09:45:33;30.60;80.50
66610;DHT22;53468;48.276;14.416;2022-08-05T09:51:08;30.80;84.20
66610;DHT22;53468;48.276;14.416;2022-08-05T09:56:42;30.90;87.00
66610;DHT22;53468;48.276;14.416;2022-08-05T10:02:31;31.00;84.70
66610;DHT22;53468;48.276;14.416;2022-08-05T10:08:05;30.80;84.70
66610;DHT22;53468;48.276;14.416;2022-08-05T10:13:37;31.00;86.10
66610;DHT22;53468;48.276;14.416;2022-08-05T10:19:12;31.30;79.80
66610;DHT22;53468;48.276;14.416;2022-08-05T10:24:44;31.60;81.90
66610;DHT22;53468;48.276;14.416;2022-08-05T10:30:16;31.70;82.10
66610;DHT22;53468;48.276;14.416;2022-08-05T10:35:51;31.80;81.20
66610;DHT22;53468;48.276;14.416;2022-08-05T10:41:29;32.00;82.20
66610;DHT22;53468;48.276;14.416;2022-08-05T10:47:10;31.80;83.00
66610;DHT22;53468;48.276;14.416;2022-08-05T10:52:46;32.10;86.20
66610;DHT22;53468;48.276;14.416;2022-08-05T10:58:23;32.20;88.80
66610;DHT22;53468;48.276;14.416;2022-08-05T11:04:00;32.10;83.90
66610;DHT22;53468;48.276;14.416;2022-08-05T11:09:38;32.10;81.60
66610;DHT22;53468;48.276;14.416;2022-08-05T11:15:18;32.30;83.70
66610;DHT22;53468;48.276;14.416;2022-08-05T11:20:52;32.30;79.40
66610;DHT22;53468;48.276;14.416;2022-08-05T11:26:25;32.50;84.50
66610;DHT22;53468;48.276;14.416;2022-08-05T11:32:22;32.70;80.00
66610;DHT22;53468;48.276;14.416;2022-08-05T11:38:03;32.60;82.80
66610;DHT22;53468;48.276;14.416;2022-08-05T11:43:38;32.70;81.00
66610;DHT22;53468;48.276;14.416;2022-08-05T11:49:15;32.80;84.70
66610;DHT22;53468;48.276;14.416;2022-08-05T11:54:50;32.90;79.70
66610;DHT22;53468;48.276;14.416;2022-08-05T12:00:27;32.80;77.30
66610;DHT22;53468;48.276;14.416;2022-08-05T12:06:01;33.00;77.30
66610;DHT22;53468;48.276;14.416;2022-08-05T12:11:34;33.30;77.70
66610;DHT22;53468;48.276;14.416;2022-08-05T12:17:09;33.20;82.80
66610;DHT22;53468;48.276;14.416;2022-08-05T12:22:42;33.20;78.80
66610;DHT22;53468;48.276;14.416;2022-08-05T12:28:29;33.50;81.10
66610;DHT22;53468;48.276;14.416;2022-08-05T12:34:05;33.50;76.90
66610;DHT22;53468;48.276;14.416;2022-08-05T12:39:39;33.60;78.00
66610;DHT22;53468;48.276;14.416;2022-08-05T12:45:11;33.40;79.50
66610;DHT22;53468;48.276;14.416;2022-08-05T12:51:10;33.60;76.30
66610;DHT22;53468;48.276;14.416;2022-08-05T12:56:46;33.60;77.40
66610;DHT22;53468;48.276;14.416;2022-08-05T13:02:21;33.30;80.60
66610;DHT22;53468;48.276;14.416;2022-08-05T13:07:57;32.90;82.00
66610;DHT22;53468;48.276;14.416;2022-08-05T13:13:29;33.10;80.30
66610;DHT22;53468;48.276;14.416;2022-08-05T13:19:01;33.30;81.80
66610;DHT22;53468;48.276;14.416;2022-08-05T13:24:35;33.40;81.90
66610;DHT22;53468;48.276;14.416;2022-08-05T13:30:08;33.60;78.40
66610;DHT22;53468;48.276;14.416;2022-08-05T13:35:41;33.40;81.70
66610;DHT22;53468;48.276;14.416;2022-08-05T13:41:14;33.60;77.80
66610;DHT22;53468;48.276;14.416;2022-08-05T13:46:47;33.60;74.20
66610;DHT22;53468;48.276;14.416;2022-08-05T13:52:20;33.70;77.30
66610;DHT22;53468;48.276;14.416;2022-08-05T13:57:54;33.60;73.80
66610;DHT22;53468;48.276;14.416;2022-08-05T14:03:26;33.70;75.90
66610;DHT22;53468;48.276;14.416;2022-08-05T14:08:58;33.70;75.10
66610;DHT22;53468;48.276;14.416;2022-08-05T14:14:32;33.80;77.40
66610;DHT22;53468;48.276;14.416;2022-08-05T14:20:05;33.90;74.30
66610;DHT22;53468;48.276;14.416;2022-08-05T14:25:37;33.60;77.10
66610;DHT22;53468;48.276;14.416;2022-08-05T14:31:11;33.80;70.30
66610;DHT22;53468;48.276;14.416;2022-08-05T14:36:43;33.90;71.90
66610;DHT22;53468;48.276;14.416;2022-08-05T14:42:15;33.90;70.80
66610;DHT22;53468;48.276;14.416;2022-08-05T14:47:48;33.90;73.60
66610;DHT22;53468;48.276;14.416;2022-08-05T14:53:20;33.90;72.40
66610;DHT22;53468;48.276;14.416;2022-08-05T14:58:52;33.80;74.60
66610;DHT22;53468;48.276;14.416;2022-08-05T15:04:26;33.90;74.30
66610;DHT22;53468;48.276;14.416;2022-08-05T15:09:58;33.80;70.30
66610;DHT22;53468;48.276;14.416;2022-08-05T15:15:31;34.00;69.10
66610;DHT22;53468;48.276;14.416;2022-08-05T15:21:05;33.90;70.80
66610;DHT22;53468;48.276;14.416;2022-08-05T15:26:38;33.80;70.20
66610;DHT22;53468;48.276;14.416;2022-08-05T15:32:10;33.80;70.50
66610;DHT22;53468;48.276;14.416;2022-08-05T15:37:43;33.70;70.60
66610;DHT22;53468;48.276;14.416;2022-08-05T15:43:15;33.40;74.50
66610;DHT22;53468;48.276;14.416;2022-08-05T15:48:48;33.10;73.00
66610;DHT22;53468;48.276;14.416;2022-08-05T15:54:21;32.90;75.40
66610;DHT22;53468;48.276;14.416;2022-08-05T15:59:54;32.80;76.40
66610;DHT22;53468;48.276;14.416;2022-08-05T16:05:26;32.70;76.00
66610;DHT22;53468;48.276;14.416;2022-08-05T16:11:01;32.40;78.50
66610;DHT22;53468;48.276;14.416;2022-08-05T16:16:33;32.50;75.20
66610;DHT22;53468;48.276;14.416;2022-08-05T16:22:07;32.50;75.10
66610;DHT22;53468;48.276;14.416;2022-08-05T16:27:41;32.50;76.10
66610;DHT22;53468;48.276;14.416;2022-08-05T16:33:13;32.50;76.40
66610;DHT22;53468;48.276;14.416;2022-08-05T16:38:45;32.40;78.40
66610;DHT22;53468;48.276;14.416;2022-08-05T16:44:19;32.30;78.60
66610;DHT22;53468;48.276;14.416;2022-08-05T16:49:52;32.20;84.70
66610;DHT22;53468;48.276;14.416;2022-08-05T16:55:24;32.00;82.40
66610;DHT22;53468;48.276;14.416;2022-08-05T17:00:57;31.90;86.70
66610;DHT22;53468;48.276;14.416;2022-08-05T17:06:31;31.70;87.00
66610;DHT22;53468;48.276;14.416;2022-08-05T17:12:06;31.40;90.10
66610;DHT22;53468;48.276;14.416;2022-08-05T17:17:40;31.20;90.30
66610;DHT22;53468;48.276;14.416;2022-08-05T17:23:13;30.90;90.70
66610;DHT22;53468;48.276;14.416;2022-08-05T17:28:45;30.60;90.50
66610;DHT22;53468;48.276;14.416;2022-08-05T17:34:19;30.50;88.90
66610;DHT22;53468;48.276;14.416;2022-08-05T17:39:51;30.40;89.20
66610;DHT22;53468;48.276;14.416;2022-08-05T17:45:24;30.20;89.10
66610;DHT22;53468;48.276;14.416;2022-08-05T17:50:58;30.00;90.10
66610;DHT22;53468;48.276;14.416;2022-08-05T17:56:31;29.80;89.40
66610;DHT22;53468;48.276;14.416;2022-08-05T18:02:03;29.70;90.90
66610;DHT22;53468;48.276;14.416;2022-08-05T18:07:37;29.50;92.40
66610;DHT22;53468;48.276;14.416;2022-08-05T18:13:09;29.20;92.70
66610;DHT22;53468;48.276;14.416;2022-08-05T18:18:43;29.00;90.90
66610;DHT22;53468;48.276;14.416;2022-08-05T18:24:16;29.00;91.50
66610;DHT22;53468;48.276;14.416;2022-08-05T18:29:48;28.70;92.80
66610;DHT22;53468;48.276;14.416;2022-08-05T18:35:20;28.70;91.50
66610;DHT22;53468;48.276;14.416;2022-08-05T18:40:56;28.70;90.80
66610;DHT22;53468;48.276;14.416;2022-08-05T18:46:28;28.50;93.20
66610;DHT22;53468;48.276;14.416;2022-08-05T18:52:00;28.40;93.40
66610;DHT22;53468;48.276;14.416;2022-08-05T18:57:51;28.20;93.90
66610;DHT22;53468;48.276;14.416;2022-08-05T19:03:24;28.00;95.00
66610;DHT22;53468;48.276;14.416;2022-08-05T19:08:56;27.90;95.10
66610;DHT22;53468;48.276;14.416;2022-08-05T19:14:29;27.60;95.40
66610;DHT22;53468;48.276;14.416;2022-08-05T19:20:02;27.50;96.80
66610;DHT22;53468;48.276;14.416;2022-08-05T19:25:35;27.30;98.70
66610;DHT22;53468;48.276;14.416;2022-08-05T19:31:10;27.20;99.20
66610;DHT22;53468;48.276;14.416;2022-08-05T19:36:42;27.00;99.90
66610;DHT22;53468;48.276;14.416;2022-08-05T19:42:14;27.00;99.90
66610;DHT22;53468;48.276;14.416;2022-08-05T19:47:49;26.80;99.90
66610;DHT22;53468;48.276;14.416;2022-08-05T19:53:21;26.50;99.90
66610;DHT22;53468;48.276;14.416;2022-08-05T19:58:53;26.50;99.90
66610;DHT22;53468;48.276;14.416;2022-08-05T20:04:27;26.40;99.90
66610;DHT22;53468;48.276;14.416;2022-08-05T20:09:59;26.20;99.90
66610;DHT22;53468;48.276;14.416;2022-08-05T20:15:32;26.20;99.90
66610;DHT22;53468;48.276;14.416;2022-08-05T20:21:06;26.10;99.90
66610;DHT22;53468;48.276;14.416;2022-08-05T20:26:38;26.00;99.90
66610;DHT22;53468;48.276;14.416;2022-08-05T20:32:11;25.80;99.90
66610;DHT22;53468;48.276;14.416;2022-08-05T20:37:44;25.80;99.90
66610;DHT22;53468;48.276;14.416;2022-08-05T20:43:18;25.70;99.80
66610;DHT22;53468;48.276;14.416;2022-08-05T20:48:50;25.60;99.90
66610;DHT22;53468;48.276;14.416;2022-08-05T20:54:25;25.50;99.90
66610;DHT22;53468;48.276;14.416;2022-08-05T20:59:58;25.30;99.90
66610;DHT22;53468;48.276;14.416;2022-08-05T21:05:31;25.30;99.90
66610;DHT22;53468;48.276;14.416;2022-08-05T21:11:07;25.20;99.90
66610;DHT22;53468;48.276;14.416;2022-08-05T21:16:39;25.10;99.90
66610;DHT22;53468;48.276;14.416;2022-08-05T21:22:11;25.10;99.90
66610;DHT22;53468;48.276;14.416;2022-08-05T21:27:45;24.90;99.90
66610;DHT22;53468;48.276;14.416;2022-08-05T21:33:18;24.80;99.90
66610;DHT22;53468;48.276;14.416;2022-08-05T21:38:57;24.70;99.90
66610;DHT22;53468;48.276;14.416;2022-08-05T21:44:36;24.50;99.90
66610;DHT22;53468;48.276;14.416;2022-08-05T21:50:09;24.40;99.90
66610;DHT22;53468;48.276;14.416;2022-08-05T21:55:42;24.20;99.90
66610;DHT22;53468;48.276;14.416;2022-08-05T22:01:16;24.10;99.90
66610;DHT22;53468;48.276;14.416;2022-08-05T22:06:48;23.90;99.90
66610;DHT22;53468;48.276;14.416;2022-08-05T22:12:20;23.90;99.90
66610;DHT22;53468;48.276;14.416;2022-08-05T22:17:54;23.90;99.90
66610;DHT22;53468;48.276;14.416;2022-08-05T22:23:26;24.00;99.90
66610;DHT22;53468;48.276;14.416;2022-08-05T22:29:16;24.00;99.90
66610;DHT22;53468;48.276;14.416;2022-08-05T22:34:50;24.00;99.90
66610;DHT22;53468;48.276;14.416;2022-08-05T22:40:22;24.10;99.90
66610;DHT22;53468;48.276;14.416;2022-08-05T22:45:54;24.10;99.90
66610;DHT22;53468;48.276;14.416;2022-08-05T22:51:28;24.00;99.90
66610;DHT22;53468;48.276;14.416;2022-08-05T22:57:00;23.90;99.90
66610;DHT22;53468;48.276;14.416;2022-08-05T23:02:32;23.80;99.90
66610;DHT22;53468;48.276;14.416;2022-08-05T23:08:06;23.90;99.90
66610;DHT22;53468;48.276;14.416;2022-08-05T23:13:39;23.80;99.90
66610;DHT22;53468;48.276;14.416;2022-08-05T23:19:11;24.00;99.90
66610;DHT22;53468;48.276;14.416;2022-08-05T23:24:45;24.00;99.90
66610;DHT22;53468;48.276;14.416;2022-08-05T23:30:18;24.40;99.90
66610;DHT22;53468;48.276;14.416;2022-08-05T23:35:50;24.60;99.90
66610;DHT22;53468;48.276;14.416;2022-08-05T23:41:23;24.50;99.90
66610;DHT22;53468;48.276;14.416;2022-08-05T23:46:56;24.40;99.90
66610;DHT22;53468;48.276;14.416;2022-08-05T23:52:28;24.40;99.90
66610;DHT22;53468;48.276;14.416;2022-08-05T23:58:02;24.40;99.90
